createdAt,value
2018-05-17T00:00:26.486Z,25.07
2018-05-17T00:02:54.045Z,21.03
2018-05-17T00:05:21.566Z,22.80
2018-05-17T00:07:49.870Z,23.83
2018-05-17T00:10:17.434Z,23.87
2018-05-17T00:12:44.954Z,22.97
2018-05-17T00:15:12.488Z,23.30
2018-05-17T00:17:40.034Z,23.77
2018-05-17T00:20:07.558Z,23.07
2018-05-17T00:22:35.085Z,23.10
2018-05-17T00:25:02.625Z,23.50
2018-05-17T00:27:30.248Z,28.30
2018-05-17T00:29:58.550Z,24.47
2018-05-17T00:32:26.858Z,25.43
2018-05-17T00:34:54.363Z,25.10
2018-05-17T00:37:21.880Z,24.30
2018-05-17T00:39:49.429Z,25.20
2018-05-17T00:42:17.705Z,30.13
2018-05-17T00:44:45.984Z,26.27
2018-05-17T00:47:14.293Z,25.23
2018-05-17T00:49:41.818Z,28.10
2018-05-17T00:52:10.099Z,25.07
2018-05-17T00:54:38.419Z,24.80
2018-05-17T00:57:05.934Z,24.77
2018-05-17T00:59:33.466Z,26.77
2018-05-17T01:02:01.000Z,29.07
2018-05-17T01:04:28.582Z,25.37
2018-05-17T01:06:56.106Z,26.07
2018-05-17T01:09:24.524Z,26.50
2018-05-17T01:11:52.927Z,27.13
2018-05-17T01:14:20.460Z,25.20
2018-05-17T01:16:48.005Z,25.20
2018-05-17T01:19:16.289Z,26.37
2018-05-17T01:21:44.566Z,26.10
2018-05-17T01:24:12.864Z,25.00
2018-05-17T01:26:41.146Z,33.07
2018-05-17T01:29:09.618Z,27.20
2018-05-17T01:31:37.942Z,26.83
2018-05-17T01:34:05.481Z,27.57
2018-05-17T01:36:33.010Z,30.33
2018-05-17T01:39:00.559Z,24.53
2018-05-17T01:41:28.115Z,25.73
2018-05-17T01:43:55.621Z,24.40
2018-05-17T01:46:23.935Z,25.47
2018-05-17T01:48:51.758Z,25.73
2018-05-17T01:51:19.280Z,25.90
2018-05-17T01:53:46.831Z,25.57
2018-05-17T01:56:14.355Z,26.73
2018-05-17T01:58:42.633Z,23.37
2018-05-17T02:01:10.171Z,26.77
2018-05-17T02:03:37.689Z,25.87
2018-05-17T02:06:06.007Z,24.20
2018-05-17T02:08:33.560Z,25.23
2018-05-17T02:11:01.232Z,26.80
2018-05-17T02:13:28.755Z,24.40
2018-05-17T02:15:57.063Z,26.37
2018-05-17T02:18:24.589Z,25.27
2018-05-17T02:20:52.113Z,26.33
2018-05-17T02:23:19.654Z,26.10
2018-05-17T02:25:47.172Z,23.90
2018-05-17T02:28:14.689Z,27.00
2018-05-17T02:30:42.282Z,23.87
2018-05-17T02:33:09.797Z,23.57
2018-05-17T02:35:37.314Z,25.33
2018-05-17T02:38:04.858Z,23.87
2018-05-17T02:40:32.382Z,25.70
2018-05-17T02:43:00.682Z,25.67
2018-05-17T02:45:28.230Z,24.50
2018-05-17T02:47:55.757Z,22.93
2018-05-17T02:50:23.293Z,25.83
2018-05-17T02:52:50.839Z,24.60
2018-05-17T02:55:18.362Z,24.10
2018-05-17T02:57:45.891Z,23.07
2018-05-17T03:00:13.439Z,23.20
2018-05-17T03:02:40.957Z,24.63
2018-05-17T03:05:09.985Z,23.03
2018-05-17T03:07:37.541Z,23.87
2018-05-17T03:10:05.816Z,26.70
2018-05-17T03:12:34.093Z,23.73
2018-05-17T03:15:02.413Z,25.27
2018-05-17T03:17:29.950Z,25.13
2018-05-17T03:19:58.245Z,22.97
2018-05-17T03:22:25.777Z,25.50
2018-05-17T03:24:53.297Z,23.53
2018-05-17T03:27:20.826Z,25.13
2018-05-17T03:29:49.138Z,23.03
2018-05-17T03:32:16.720Z,22.07
2018-05-17T03:34:44.241Z,23.80
2018-05-17T03:37:11.783Z,21.17
2018-05-17T03:39:40.069Z,23.83
2018-05-17T03:42:08.366Z,24.10
2018-05-17T03:44:36.768Z,22.27
2018-05-17T03:47:04.291Z,24.00
2018-05-17T03:49:32.585Z,22.90
2018-05-17T03:52:00.895Z,21.73
2018-05-17T03:54:28.410Z,22.47
2018-05-17T03:56:55.933Z,22.23
2018-05-17T03:59:23.495Z,22.37
2018-05-17T04:02:02.993Z,22.40
2018-05-17T04:04:42.407Z,19.70
2018-05-17T04:07:09.945Z,21.43
2018-05-17T04:09:37.458Z,23.10
2018-05-17T04:12:05.758Z,21.17
2018-05-17T04:17:07.334Z,23.47
2018-05-17T04:19:34.857Z,20.43
2018-05-17T04:22:03.885Z,21.93
2018-05-17T04:24:32.187Z,21.00
2018-05-17T04:26:59.778Z,22.43
2018-05-17T04:29:27.294Z,23.33
2018-05-17T04:31:55.685Z,20.20
2018-05-17T04:34:24.005Z,22.23
2018-05-17T04:36:51.521Z,22.37
2018-05-17T04:39:19.837Z,21.90
2018-05-17T04:41:47.349Z,20.43
2018-05-17T04:44:15.652Z,22.27
2018-05-17T04:46:43.948Z,22.50
2018-05-17T04:49:11.544Z,23.20
2018-05-17T04:51:38.993Z,22.60
2018-05-17T04:54:06.557Z,21.30
2018-05-17T04:56:34.083Z,20.60
2018-05-17T04:59:02.393Z,21.23
2018-05-17T05:01:29.949Z,22.43
2018-05-17T05:03:57.541Z,21.90
2018-05-17T05:06:25.065Z,20.30
2018-05-17T05:08:53.373Z,20.07
2018-05-17T05:11:20.904Z,23.33
2018-05-17T05:13:49.193Z,19.30
2018-05-17T05:16:17.513Z,21.13
2018-05-17T05:18:45.078Z,20.27
2018-05-17T05:21:12.627Z,21.57
2018-05-17T05:23:40.165Z,21.03
2018-05-17T05:26:08.460Z,20.33
2018-05-17T05:28:35.986Z,20.27
2018-05-17T05:31:03.601Z,19.90
2018-05-17T05:33:31.122Z,19.93
2018-05-17T05:35:59.516Z,20.90
2018-05-17T05:38:27.062Z,21.63
2018-05-17T05:40:56.085Z,23.57
2018-05-17T05:43:24.382Z,20.03
2018-05-17T05:45:52.707Z,20.13
2018-05-17T05:48:20.226Z,20.57
2018-05-17T05:50:48.533Z,21.60
2018-05-17T05:53:16.061Z,22.20
2018-05-17T05:55:44.411Z,21.37
2018-05-17T05:58:11.935Z,23.17
2018-05-17T06:00:39.485Z,23.37
2018-05-17T06:03:08.199Z,27.17
2018-05-17T06:05:35.767Z,26.77
2018-05-17T06:08:03.319Z,23.17
2018-05-17T06:10:30.845Z,28.07
2018-05-17T06:12:59.159Z,24.60
2018-05-17T06:15:26.712Z,24.23
2018-05-17T06:17:54.985Z,22.93
2018-05-17T06:20:23.274Z,25.20
2018-05-17T06:22:51.580Z,24.57
2018-05-17T06:25:19.098Z,25.13
2018-05-17T06:27:47.421Z,21.23
2018-05-17T06:30:14.986Z,21.17
2018-05-17T06:32:42.513Z,19.70
2018-05-17T06:35:10.814Z,20.93
2018-05-17T06:37:39.281Z,19.00
2018-05-17T06:40:06.750Z,18.33
2018-05-17T06:42:35.044Z,19.93
2018-05-17T06:45:03.357Z,19.80
2018-05-17T06:47:30.913Z,20.20
2018-05-17T06:49:58.449Z,18.97
2018-05-17T06:52:26.757Z,18.63
2018-05-17T06:54:54.281Z,17.60
2018-05-17T06:57:21.809Z,18.17
2018-05-17T06:59:49.371Z,17.27
2018-05-17T07:02:16.893Z,17.70
2018-05-17T07:04:45.169Z,18.97
2018-05-17T07:07:13.493Z,18.53
2018-05-17T07:09:41.011Z,20.87
2018-05-17T07:12:09.301Z,24.00
2018-05-17T07:14:37.616Z,21.10
2018-05-17T07:17:05.137Z,19.30
2018-05-17T07:19:33.426Z,19.30
2018-05-17T07:22:01.738Z,17.23
2018-05-17T07:24:29.281Z,17.10
2018-05-17T07:26:56.843Z,17.73
2018-05-17T07:29:24.432Z,18.80
2018-05-17T07:31:51.970Z,16.47
2018-05-17T07:34:20.246Z,20.37
2018-05-17T07:36:48.557Z,18.97
2018-05-17T07:39:16.246Z,18.80
2018-05-17T07:41:43.734Z,18.23
2018-05-17T07:44:11.268Z,17.53
2018-05-17T07:46:38.824Z,17.50
2018-05-17T07:49:06.374Z,19.07
2018-05-17T07:51:33.917Z,16.03
2018-05-17T07:54:02.200Z,18.10
2018-05-17T07:56:30.490Z,18.93
2018-05-17T07:58:58.041Z,15.87
2018-05-17T08:01:26.329Z,17.03
2018-05-17T08:03:54.623Z,16.30
2018-05-17T08:06:22.165Z,17.77
2018-05-17T08:08:50.449Z,17.80
2018-05-17T08:11:18.763Z,16.17
2018-05-17T08:13:47.113Z,17.03
2018-05-17T08:16:15.398Z,17.83
2018-05-17T08:18:43.681Z,16.80
2018-05-17T08:21:11.997Z,19.30
2018-05-17T08:23:39.549Z,18.97
2018-05-17T08:26:07.832Z,21.17
2018-05-17T08:28:35.389Z,17.93
2018-05-17T08:31:02.915Z,17.53
2018-05-17T08:33:30.433Z,17.07
2018-05-17T08:35:57.966Z,19.13
2018-05-17T08:38:26.238Z,18.17
2018-05-17T08:40:54.770Z,17.70
2018-05-17T08:43:22.314Z,18.10
2018-05-17T08:45:49.825Z,20.23
2018-05-17T08:48:17.346Z,22.50
2018-05-17T08:50:44.901Z,18.77
2018-05-17T08:53:12.462Z,20.63
2018-05-17T08:55:40.089Z,22.33
2018-05-17T08:58:09.151Z,20.67
2018-05-17T09:00:36.717Z,19.27
2018-05-17T09:03:04.250Z,21.67
2018-05-17T09:05:32.665Z,20.37
2018-05-17T09:08:00.194Z,20.10
2018-05-17T09:10:28.483Z,20.40
2018-05-17T09:12:56.045Z,18.90
2018-05-17T09:15:23.569Z,19.13
2018-05-17T09:17:51.108Z,18.97
2018-05-17T09:20:18.761Z,19.37
2018-05-17T09:22:46.174Z,19.73
2018-05-17T09:25:15.218Z,22.07
2018-05-17T09:27:42.749Z,19.13
2018-05-17T09:30:11.037Z,19.90
2018-05-17T09:32:39.326Z,20.23
2018-05-17T09:35:07.651Z,20.03
2018-05-17T09:37:35.166Z,19.03
2018-05-17T09:40:04.104Z,19.77
2018-05-17T09:42:31.741Z,18.53
2018-05-17T09:45:00.024Z,18.67
2018-05-17T09:47:28.163Z,17.97
2018-05-17T09:49:55.716Z,19.40
2018-05-17T09:52:23.240Z,17.77
2018-05-17T09:54:50.858Z,17.05
2018-05-17T09:57:18.344Z,17.67
2018-05-17T09:59:46.647Z,15.95
2018-05-17T10:02:14.166Z,17.08
2018-05-17T10:04:41.778Z,16.15
2018-05-17T10:07:09.297Z,16.90
2018-05-17T10:09:36.816Z,15.68
2018-05-17T10:12:04.370Z,17.37
2018-05-17T10:14:31.945Z,16.35
2018-05-17T10:17:00.203Z,17.70
2018-05-17T10:19:28.500Z,18.63
2018-05-17T10:21:56.036Z,18.87
2018-05-17T10:24:24.173Z,21.58
2018-05-17T10:26:51.718Z,20.73
2018-05-17T10:29:19.257Z,23.17
2018-05-17T10:31:46.856Z,23.97
2018-05-17T10:34:14.397Z,24.23
2018-05-17T10:36:41.954Z,24.10
2018-05-17T10:39:09.531Z,26.10
2018-05-17T10:41:37.076Z,25.07
2018-05-17T10:44:05.434Z,25.43
2018-05-17T10:46:32.954Z,27.00
2018-05-17T10:49:00.549Z,24.17
2018-05-17T10:51:28.089Z,25.33
2018-05-17T10:53:55.638Z,26.70
2018-05-17T10:56:23.205Z,27.37
2018-05-17T10:58:50.725Z,27.92
2018-05-17T11:01:18.260Z,27.20
2018-05-17T11:03:45.790Z,28.58
2018-05-17T11:06:13.314Z,30.15
2018-05-17T11:08:40.842Z,28.67
2018-05-17T11:11:08.392Z,27.00
2018-05-17T11:13:35.921Z,29.50
2018-05-17T11:16:04.254Z,27.73
2018-05-17T11:18:31.809Z,29.47
2018-05-17T11:20:59.330Z,31.77
2018-05-17T11:23:27.624Z,27.53
2018-05-17T11:25:55.941Z,29.37
2018-05-17T11:28:23.461Z,32.67
2018-05-17T11:30:51.754Z,30.23
2018-05-17T11:33:19.295Z,29.23
2018-05-17T11:35:47.606Z,26.67
2018-05-17T11:38:15.132Z,32.20
2018-05-17T11:40:44.201Z,27.37
2018-05-17T11:43:11.725Z,28.42
2018-05-17T11:45:40.053Z,26.48
2018-05-17T11:48:07.611Z,29.02
2018-05-17T11:50:35.126Z,26.25
2018-05-17T11:53:03.426Z,28.00
2018-05-17T11:55:30.985Z,29.15
2018-05-17T11:57:59.269Z,28.80
2018-05-17T12:00:27.567Z,27.42
2018-05-17T12:02:55.123Z,28.15
2018-05-17T12:05:22.664Z,29.63
2018-05-17T12:07:50.961Z,30.40
2018-05-17T12:10:18.493Z,27.48
2018-05-17T12:12:46.021Z,32.00
2018-05-17T12:15:13.542Z,29.15
2018-05-17T12:17:41.205Z,31.85
2018-05-17T12:20:09.494Z,30.75
2018-05-17T12:22:37.790Z,30.67
2018-05-17T12:25:05.329Z,32.10
2018-05-17T12:27:33.605Z,29.17
2018-05-17T12:30:01.897Z,30.45
2018-05-17T12:32:29.489Z,30.88
2018-05-17T12:34:57.006Z,28.70
2018-05-17T12:37:26.047Z,27.55
2018-05-17T12:39:53.664Z,29.87
2018-05-17T12:42:21.186Z,31.62
2018-05-17T12:44:49.713Z,29.05
2018-05-17T12:47:17.389Z,28.80
2018-05-17T12:49:46.420Z,26.10
2018-05-17T12:52:13.938Z,26.85
2018-05-17T12:54:41.482Z,27.17
2018-05-17T12:57:09.049Z,27.95
2018-05-17T12:59:36.566Z,26.05
2018-05-17T13:02:04.909Z,25.67
2018-05-17T13:04:32.438Z,28.45
2018-05-17T13:06:59.964Z,25.05
2018-05-17T13:09:28.301Z,25.75
2018-05-17T13:11:55.830Z,24.40
2018-05-17T13:14:23.357Z,28.00
2018-05-17T13:16:50.902Z,25.17
2018-05-17T13:19:18.421Z,26.55
2018-05-17T13:21:45.939Z,22.40
2018-05-17T13:24:13.491Z,22.40
2018-05-17T13:26:41.016Z,23.65
2018-05-17T13:29:08.562Z,26.60
2018-05-17T13:31:36.870Z,25.77
2018-05-17T13:34:04.390Z,20.75
2018-05-17T13:36:33.418Z,23.30
2018-05-17T13:39:01.722Z,20.75
2018-05-17T13:41:29.274Z,20.12
2018-05-17T13:43:56.797Z,18.83
2018-05-17T13:46:24.364Z,19.62
2018-05-17T13:48:52.751Z,18.77
2018-05-17T13:51:20.294Z,18.17
2018-05-17T13:53:47.846Z,16.58
2018-05-17T13:56:15.373Z,18.00
2018-05-17T13:58:43.653Z,14.57
2018-05-17T14:01:11.962Z,15.57
2018-05-17T14:03:39.485Z,17.42
2018-05-17T14:06:07.761Z,15.95
2018-05-17T14:08:35.341Z,15.60
2018-05-17T14:11:02.940Z,13.57
2018-05-17T14:13:30.496Z,15.18
2018-05-17T14:15:58.046Z,14.98
2018-05-17T14:18:25.570Z,17.30
2018-05-17T14:20:53.110Z,12.90
2018-05-17T14:23:20.687Z,16.12
2018-05-17T14:25:48.208Z,17.30
2018-05-17T14:28:15.727Z,15.88
2018-05-17T14:30:43.276Z,15.10
2018-05-17T14:33:10.829Z,13.27
2018-05-17T14:35:38.349Z,14.93
2018-05-17T14:38:06.769Z,14.73
2018-05-17T14:40:34.297Z,14.23
2018-05-17T14:43:02.585Z,14.07
2018-05-17T14:45:30.911Z,16.42
2018-05-17T14:47:58.446Z,14.32
2018-05-17T14:50:26.301Z,13.43
2018-05-17T14:52:54.625Z,13.98
2018-05-17T14:55:22.168Z,14.18
2018-05-17T14:57:49.677Z,13.35
2018-05-17T15:00:18.720Z,13.40
2018-05-17T15:02:46.282Z,15.07
2018-05-17T15:05:13.805Z,12.32
2018-05-17T15:07:41.346Z,13.73
2018-05-17T15:10:08.862Z,15.82
2018-05-17T15:12:37.145Z,15.13
2018-05-17T15:15:05.453Z,14.43
2018-05-17T15:17:32.966Z,12.02
2018-05-17T15:20:00.497Z,14.32
2018-05-17T15:22:28.033Z,16.30
2018-05-17T15:24:55.548Z,15.40
2018-05-17T15:27:23.171Z,13.55
2018-05-17T15:29:50.764Z,12.07
2018-05-17T15:32:19.001Z,14.68
2018-05-17T15:34:46.526Z,16.80
2018-05-17T15:37:14.157Z,15.15
2018-05-17T15:39:41.703Z,14.35
2018-05-17T15:42:09.299Z,15.80
2018-05-17T15:44:36.864Z,14.63
2018-05-17T15:47:04.389Z,16.90
2018-05-17T15:49:31.912Z,17.37
2018-05-17T15:51:59.507Z,16.77
2018-05-17T15:54:27.800Z,17.83
2018-05-17T15:56:56.094Z,17.30
2018-05-17T15:59:23.666Z,13.50
2018-05-17T16:01:51.181Z,12.75
2018-05-17T16:04:18.705Z,13.45
2018-05-17T16:06:46.245Z,9.65
2018-05-17T16:09:13.764Z,12.18
2018-05-17T16:11:41.284Z,10.20
2018-05-17T16:14:08.821Z,16.58
2018-05-17T16:16:37.127Z,12.75
2018-05-17T16:19:04.649Z,12.55
2018-05-17T16:21:32.962Z,11.20
2018-05-17T16:24:00.486Z,12.27
2018-05-17T16:26:27.999Z,11.45
2018-05-17T16:28:55.542Z,12.30
2018-05-17T16:31:23.834Z,11.55
2018-05-17T16:33:51.370Z,13.57
2018-05-17T16:36:18.970Z,11.93
2018-05-17T16:38:46.546Z,11.25
2018-05-17T16:41:14.066Z,14.95
2018-05-17T16:43:41.625Z,11.02
2018-05-17T16:46:09.149Z,12.07
2018-05-17T16:48:36.755Z,9.88
2018-05-17T16:51:05.020Z,12.48
2018-05-17T16:53:33.397Z,10.52
2018-05-17T16:56:00.918Z,11.82
2018-05-17T16:58:28.485Z,9.50
2018-05-17T17:00:56.043Z,12.45
2018-05-17T17:03:23.599Z,12.25
2018-05-17T17:05:51.912Z,13.85
2018-05-17T17:08:19.441Z,12.68
2018-05-17T17:10:47.727Z,11.82
2018-05-17T17:13:16.032Z,11.55
2018-05-17T17:15:43.609Z,12.07
2018-05-17T17:18:11.854Z,15.57
2018-05-17T17:20:40.149Z,11.98
2018-05-17T17:23:07.673Z,14.43
2018-05-17T17:25:35.960Z,13.05
2018-05-17T17:28:03.519Z,12.25
2018-05-17T17:30:31.813Z,15.23
2018-05-17T17:32:59.329Z,11.35
2018-05-17T17:35:26.887Z,11.93
2018-05-17T17:37:54.398Z,14.55
2018-05-17T17:40:21.910Z,12.18
2018-05-17T17:42:49.452Z,14.48
2018-05-17T17:45:16.998Z,15.70
2018-05-17T17:47:44.512Z,12.57
2018-05-17T17:50:12.043Z,10.98
2018-05-17T17:52:39.573Z,12.35
2018-05-17T17:55:07.180Z,11.45
2018-05-17T17:57:34.739Z,13.32
2018-05-17T18:00:03.106Z,13.23
2018-05-17T18:02:31.400Z,10.73
2018-05-17T18:04:59.716Z,11.23
2018-05-17T18:07:27.233Z,11.77
2018-05-17T18:09:55.522Z,10.10
2018-05-17T18:12:23.833Z,10.93
2018-05-17T18:14:51.362Z,10.30
2018-05-17T18:17:19.695Z,12.23
2018-05-17T18:19:47.333Z,11.03
2018-05-17T18:22:14.858Z,15.13
2018-05-17T18:24:43.981Z,11.40
2018-05-17T18:27:11.480Z,12.67
2018-05-17T18:29:38.997Z,11.13
2018-05-17T18:32:07.301Z,10.63
2018-05-17T18:34:34.833Z,13.70
2018-05-17T18:37:02.346Z,12.07
2018-05-17T18:39:29.862Z,10.53
2018-05-17T18:41:57.422Z,14.73
2018-05-17T18:44:25.709Z,11.17
2018-05-17T18:46:54.736Z,11.60
2018-05-17T18:49:23.241Z,12.40
2018-05-17T18:51:50.768Z,11.70
2018-05-17T18:54:19.047Z,12.37
2018-05-17T18:56:46.842Z,13.10
2018-05-17T18:59:14.363Z,12.80
2018-05-17T19:01:41.935Z,12.87
2018-05-17T19:04:09.430Z,11.30
2018-05-17T19:06:37.706Z,13.53
2018-05-17T19:09:06.012Z,12.40
2018-05-17T19:11:33.546Z,12.50
2018-05-17T19:14:01.840Z,15.23
2018-05-17T19:16:30.161Z,12.73
2018-05-17T19:18:57.806Z,14.37
2018-05-17T19:21:25.422Z,13.13
2018-05-17T19:23:52.943Z,13.30
2018-05-17T19:26:20.529Z,14.63
2018-05-17T19:28:48.054Z,13.10
2018-05-17T19:31:15.686Z,15.90
2018-05-17T19:33:44.061Z,14.07
2018-05-17T19:36:11.595Z,16.27
2018-05-17T19:38:39.205Z,13.63
2018-05-17T19:41:06.770Z,15.00
2018-05-17T19:43:35.188Z,17.97
2018-05-17T19:46:02.786Z,15.63
2018-05-17T19:48:30.343Z,18.57
2018-05-17T19:50:57.895Z,18.87
2018-05-17T19:53:25.514Z,15.97
2018-05-17T19:55:53.945Z,16.10
2018-05-17T19:58:21.681Z,16.13
2018-05-17T20:00:49.998Z,18.10
2018-05-17T20:03:17.659Z,16.80
2018-05-17T20:05:45.191Z,15.53
2018-05-17T20:08:13.549Z,14.67
2018-05-17T20:10:42.774Z,15.53
2018-05-17T20:13:11.137Z,18.80
2018-05-17T20:15:38.728Z,15.93
2018-05-17T20:18:07.051Z,14.90
2018-05-17T20:20:34.617Z,16.60
2018-05-17T20:23:02.203Z,16.53
2018-05-17T20:25:31.346Z,15.83
2018-05-17T20:27:59.072Z,17.37
2018-05-17T20:30:26.712Z,16.17
2018-05-17T20:32:54.288Z,15.00
2018-05-17T20:35:21.947Z,16.60
2018-05-17T20:37:50.014Z,14.93
2018-05-17T20:40:17.684Z,17.00
2018-05-17T20:42:45.291Z,16.80
2018-05-17T20:45:13.741Z,14.80
2018-05-17T20:47:41.621Z,16.87
2018-05-17T20:50:09.542Z,15.93
2018-05-17T20:52:37.090Z,14.60
2018-05-17T20:55:04.869Z,15.77
2018-05-17T20:57:33.287Z,14.73
2018-05-17T21:00:00.910Z,14.73
2018-05-17T21:02:28.615Z,17.03
2018-05-17T21:04:56.311Z,15.80
2018-05-17T21:07:24.182Z,14.37
2018-05-17T21:09:52.704Z,14.40
2018-05-17T21:12:20.653Z,18.27
2018-05-17T21:14:48.304Z,15.87
2018-05-17T21:17:16.120Z,15.53
2018-05-17T21:19:43.663Z,12.43
2018-05-17T21:22:12.010Z,12.87
2018-05-17T21:24:39.571Z,13.73
2018-05-17T21:27:07.174Z,14.73
2018-05-17T21:29:34.735Z,16.13
2018-05-17T22:15:44.583Z,19.50
2018-05-17T22:18:12.169Z,17.53
2018-05-17T22:20:39.679Z,16.47
2018-05-17T22:23:08.139Z,16.27
2018-05-17T22:25:35.750Z,17.63
2018-05-17T22:28:03.269Z,18.60
2018-05-17T22:30:31.573Z,13.90
2018-05-17T22:32:59.867Z,14.07
2018-05-17T22:35:27.385Z,16.33
2018-05-17T22:37:54.926Z,16.40
2018-05-17T22:40:22.436Z,16.07
2018-05-17T22:42:51.786Z,12.60
2018-05-17T22:45:19.333Z,11.83
2018-05-17T22:47:46.842Z,17.73
2018-05-17T22:50:14.366Z,13.27
2018-05-17T22:52:41.894Z,16.97
2018-05-17T22:55:10.203Z,16.57
2018-05-17T22:57:49.822Z,13.53
2018-05-17T23:00:17.311Z,15.67
2018-05-17T23:02:44.836Z,13.50
2018-05-17T23:05:13.170Z,16.83
2018-05-17T23:07:40.695Z,17.77
2018-05-17T23:10:08.975Z,15.33
2018-05-17T23:12:37.278Z,16.40
2018-05-17T23:15:04.850Z,12.87
2018-05-17T23:17:32.437Z,13.77
2018-05-17T23:19:59.993Z,14.53
2018-05-17T23:22:35.513Z,13.93
2018-05-17T23:25:03.809Z,14.63
2018-05-17T23:27:31.330Z,15.43
2018-05-17T23:29:59.628Z,14.53
2018-05-17T23:32:27.932Z,17.97
2018-05-17T23:34:55.446Z,11.63
2018-05-17T23:37:22.981Z,17.40
2018-05-17T23:39:50.610Z,18.17
2018-05-17T23:42:18.890Z,14.87
2018-05-17T23:44:47.182Z,13.17
2018-05-17T23:47:14.754Z,14.03
2018-05-17T23:49:42.285Z,13.17
2018-05-17T23:52:10.564Z,15.33
2018-05-17T23:54:38.113Z,12.67
2018-05-17T23:57:06.385Z,16.07
2018-05-17T23:59:33.914Z,15.47
